sensor_id;sensor_type;location;lat;lon;timestamp;P1;durP1;ratioP1;P2;durP2;ratioP2
59907;SDS011;61804;54.926;73.496;2022-12-04T00:00:11;25.85;;;12.93;;
59907;SDS011;61804;54.926;73.496;2022-12-04T00:02:41;26.90;;;14.27;;
59907;SDS011;61804;54.926;73.496;2022-12-04T00:05:13;36.35;;;17.50;;
59907;SDS011;61804;54.926;73.496;2022-12-04T00:07:41;38.10;;;20.13;;
59907;SDS011;61804;54.926;73.496;2022-12-04T00:10:09;51.13;;;25.90;;
59907;SDS011;61804;54.926;73.496;2022-12-04T00:12:42;43.03;;;28.27;;
59907;SDS011;61804;54.926;73.496;2022-12-04T00:15:10;43.53;;;25.30;;
59907;SDS011;61804;54.926;73.496;2022-12-04T00:17:37;28.33;;;20.63;;
59907;SDS011;61804;54.926;73.496;2022-12-04T00:20:10;35.25;;;25.58;;
59907;SDS011;61804;54.926;73.496;2022-12-04T00:22:43;37.60;;;23.75;;
59907;SDS011;61804;54.926;73.496;2022-12-04T00:25:10;37.95;;;23.42;;
59907;SDS011;61804;54.926;73.496;2022-12-04T00:27:49;59.33;;;32.90;;
59907;SDS011;61804;54.926;73.496;2022-12-04T00:30:21;62.72;;;37.85;;
59907;SDS011;61804;54.926;73.496;2022-12-04T00:32:49;27.33;;;17.15;;
59907;SDS011;61804;54.926;73.496;2022-12-04T00:35:21;30.17;;;16.77;;
59907;SDS011;61804;54.926;73.496;2022-12-04T00:37:49;28.77;;;15.25;;
59907;SDS011;61804;54.926;73.496;2022-12-04T00:40:16;27.40;;;18.48;;
59907;SDS011;61804;54.926;73.496;2022-12-04T00:42:48;25.13;;;14.93;;
59907;SDS011;61804;54.926;73.496;2022-12-04T00:45:16;23.10;;;13.75;;
59907;SDS011;61804;54.926;73.496;2022-12-04T00:47:43;23.55;;;15.57;;
59907;SDS011;61804;54.926;73.496;2022-12-04T00:50:21;30.70;;;20.33;;
59907;SDS011;61804;54.926;73.496;2022-12-04T00:52:48;17.83;;;13.88;;
59907;SDS011;61804;54.926;73.496;2022-12-04T00:55:16;19.63;;;11.13;;
59907;SDS011;61804;54.926;73.496;2022-12-04T00:57:48;22.05;;;15.85;;
59907;SDS011;61804;54.926;73.496;2022-12-04T01:00:27;22.58;;;15.38;;
59907;SDS011;61804;54.926;73.496;2022-12-04T01:03:05;17.55;;;9.65;;
59907;SDS011;61804;54.926;73.496;2022-12-04T01:05:43;34.58;;;16.08;;
59907;SDS011;61804;54.926;73.496;2022-12-04T01:08:16;23.95;;;15.70;;
59907;SDS011;61804;54.926;73.496;2022-12-04T01:10:49;21.33;;;12.95;;
59907;SDS011;61804;54.926;73.496;2022-12-04T01:13:21;24.05;;;17.38;;
59907;SDS011;61804;54.926;73.496;2022-12-04T01:15:58;28.42;;;14.80;;
59907;SDS011;61804;54.926;73.496;2022-12-04T01:18:26;25.52;;;16.77;;
59907;SDS011;61804;54.926;73.496;2022-12-04T01:20:53;23.90;;;15.90;;
59907;SDS011;61804;54.926;73.496;2022-12-04T01:23:20;33.97;;;17.35;;
59907;SDS011;61804;54.926;73.496;2022-12-04T01:25:54;34.25;;;22.60;;
59907;SDS011;61804;54.926;73.496;2022-12-04T01:28:22;32.90;;;19.80;;
59907;SDS011;61804;54.926;73.496;2022-12-04T01:33:46;55.22;;;23.30;;
59907;SDS011;61804;54.926;73.496;2022-12-04T01:36:18;49.92;;;25.67;;
59907;SDS011;61804;54.926;73.496;2022-12-04T01:38:57;42.40;;;20.15;;
59907;SDS011;61804;54.926;73.496;2022-12-04T01:41:25;40.00;;;21.13;;
59907;SDS011;61804;54.926;73.496;2022-12-04T01:46:56;20.33;;;12.68;;
59907;SDS011;61804;54.926;73.496;2022-12-04T01:51:58;37.28;;;20.52;;
59907;SDS011;61804;54.926;73.496;2022-12-04T01:54:28;44.03;;;26.65;;
59907;SDS011;61804;54.926;73.496;2022-12-04T01:57:02;50.95;;;30.45;;
59907;SDS011;61804;54.926;73.496;2022-12-04T01:59:34;54.58;;;28.52;;
59907;SDS011;61804;54.926;73.496;2022-12-04T02:02:04;34.50;;;21.75;;
59907;SDS011;61804;54.926;73.496;2022-12-04T02:04:33;36.67;;;23.10;;
59907;SDS011;61804;54.926;73.496;2022-12-04T02:07:13;46.47;;;32.13;;
59907;SDS011;61804;54.926;73.496;2022-12-04T02:09:42;48.70;;;32.08;;
59907;SDS011;61804;54.926;73.496;2022-12-04T02:12:57;86.47;;;54.53;;
59907;SDS011;61804;54.926;73.496;2022-12-04T02:23:19;56.33;;;31.95;;
59907;SDS011;61804;54.926;73.496;2022-12-04T02:31:20;69.40;;;38.80;;
59907;SDS011;61804;54.926;73.496;2022-12-04T02:34:03;83.40;;;49.95;;
59907;SDS011;61804;54.926;73.496;2022-12-04T02:36:35;81.55;;;38.70;;
59907;SDS011;61804;54.926;73.496;2022-12-04T02:39:29;58.13;;;34.15;;
59907;SDS011;61804;54.926;73.496;2022-12-04T02:42:03;52.05;;;27.55;;
59907;SDS011;61804;54.926;73.496;2022-12-04T02:44:34;56.70;;;29.27;;
59907;SDS011;61804;54.926;73.496;2022-12-04T02:47:04;60.60;;;35.33;;
59907;SDS011;61804;54.926;73.496;2022-12-04T02:49:34;78.07;;;44.15;;
59907;SDS011;61804;54.926;73.496;2022-12-04T02:52:05;103.40;;;56.30;;
59907;SDS011;61804;54.926;73.496;2022-12-04T02:54:34;104.40;;;59.88;;
59907;SDS011;61804;54.926;73.496;2022-12-04T02:57:05;110.95;;;64.57;;
59907;SDS011;61804;54.926;73.496;2022-12-04T02:59:40;162.82;;;88.78;;
59907;SDS011;61804;54.926;73.496;2022-12-04T03:02:23;212.82;;;116.57;;
59907;SDS011;61804;54.926;73.496;2022-12-04T03:04:51;210.55;;;104.43;;
59907;SDS011;61804;54.926;73.496;2022-12-04T03:07:26;146.27;;;88.47;;
59907;SDS011;61804;54.926;73.496;2022-12-04T03:09:55;150.27;;;84.95;;
59907;SDS011;61804;54.926;73.496;2022-12-04T03:12:34;184.27;;;102.20;;
59907;SDS011;61804;54.926;73.496;2022-12-04T03:15:19;161.77;;;91.95;;
59907;SDS011;61804;54.926;73.496;2022-12-04T03:17:55;274.00;;;142.57;;
59907;SDS011;61804;54.926;73.496;2022-12-04T03:20:25;265.77;;;160.18;;
59907;SDS011;61804;54.926;73.496;2022-12-04T03:22:55;439.10;;;250.00;;
59907;SDS011;61804;54.926;73.496;2022-12-04T03:25:27;324.35;;;164.07;;
59907;SDS011;61804;54.926;73.496;2022-12-04T03:28:01;344.10;;;204.68;;
59907;SDS011;61804;54.926;73.496;2022-12-04T03:30:41;205.77;;;121.40;;
59907;SDS011;61804;54.926;73.496;2022-12-04T03:33:14;214.98;;;113.82;;
59907;SDS011;61804;54.926;73.496;2022-12-04T03:38:16;189.40;;;112.38;;
59907;SDS011;61804;54.926;73.496;2022-12-04T03:40:53;208.43;;;113.00;;
59907;SDS011;61804;54.926;73.496;2022-12-04T03:45:57;212.35;;;127.13;;
59907;SDS011;61804;54.926;73.496;2022-12-04T03:48:28;157.48;;;100.18;;
59907;SDS011;61804;54.926;73.496;2022-12-04T03:53:31;175.07;;;110.18;;
59907;SDS011;61804;54.926;73.496;2022-12-04T03:58:34;187.00;;;110.13;;
59907;SDS011;61804;54.926;73.496;2022-12-04T04:01:16;202.20;;;127.05;;
59907;SDS011;61804;54.926;73.496;2022-12-04T04:03:47;215.70;;;128.20;;
59907;SDS011;61804;54.926;73.496;2022-12-04T04:06:28;169.32;;;95.78;;
59907;SDS011;61804;54.926;73.496;2022-12-04T04:09:00;137.43;;;86.38;;
59907;SDS011;61804;54.926;73.496;2022-12-04T04:11:42;142.30;;;94.65;;
59907;SDS011;61804;54.926;73.496;2022-12-04T04:14:22;131.57;;;82.70;;
59907;SDS011;61804;54.926;73.496;2022-12-04T04:17:19;117.85;;;68.65;;
59907;SDS011;61804;54.926;73.496;2022-12-04T04:20:08;128.23;;;85.38;;
59907;SDS011;61804;54.926;73.496;2022-12-04T04:23:03;121.60;;;70.50;;
59907;SDS011;61804;54.926;73.496;2022-12-04T04:25:51;156.48;;;106.40;;
59907;SDS011;61804;54.926;73.496;2022-12-04T04:31:01;181.98;;;104.13;;
59907;SDS011;61804;54.926;73.496;2022-12-04T04:33:58;122.13;;;83.78;;
59907;SDS011;61804;54.926;73.496;2022-12-04T04:39:03;229.15;;;147.38;;
59907;SDS011;61804;54.926;73.496;2022-12-04T04:41:38;91.75;;;60.22;;
59907;SDS011;61804;54.926;73.496;2022-12-04T04:44:15;102.25;;;66.30;;
59907;SDS011;61804;54.926;73.496;2022-12-04T04:46:47;65.45;;;42.38;;
59907;SDS011;61804;54.926;73.496;2022-12-04T04:49:17;69.22;;;47.78;;
59907;SDS011;61804;54.926;73.496;2022-12-04T04:51:57;42.17;;;28.45;;
59907;SDS011;61804;54.926;73.496;2022-12-04T04:54:30;29.25;;;19.70;;
59907;SDS011;61804;54.926;73.496;2022-12-04T04:57:00;23.08;;;17.70;;
59907;SDS011;61804;54.926;73.496;2022-12-04T04:59:28;32.30;;;18.58;;
59907;SDS011;61804;54.926;73.496;2022-12-04T05:01:55;24.27;;;18.02;;
59907;SDS011;61804;54.926;73.496;2022-12-04T05:04:23;47.65;;;27.52;;
59907;SDS011;61804;54.926;73.496;2022-12-04T05:06:59;36.42;;;25.38;;
59907;SDS011;61804;54.926;73.496;2022-12-04T05:09:27;40.35;;;23.27;;
59907;SDS011;61804;54.926;73.496;2022-12-04T05:11:54;33.58;;;23.67;;
59907;SDS011;61804;54.926;73.496;2022-12-04T05:14:27;41.42;;;24.52;;
59907;SDS011;61804;54.926;73.496;2022-12-04T05:16:54;37.45;;;23.25;;
59907;SDS011;61804;54.926;73.496;2022-12-04T05:19:22;47.05;;;29.48;;
59907;SDS011;61804;54.926;73.496;2022-12-04T05:22:17;43.72;;;31.42;;
59907;SDS011;61804;54.926;73.496;2022-12-04T05:24:44;45.80;;;28.48;;
59907;SDS011;61804;54.926;73.496;2022-12-04T05:27:11;40.25;;;28.65;;
59907;SDS011;61804;54.926;73.496;2022-12-04T05:29:38;48.75;;;25.35;;
59907;SDS011;61804;54.926;73.496;2022-12-04T05:32:06;40.33;;;27.05;;
59907;SDS011;61804;54.926;73.496;2022-12-04T05:34:33;46.60;;;28.38;;
59907;SDS011;61804;54.926;73.496;2022-12-04T05:37:01;34.60;;;25.52;;
59907;SDS011;61804;54.926;73.496;2022-12-04T05:39:28;44.35;;;25.20;;
59907;SDS011;61804;54.926;73.496;2022-12-04T05:41:55;39.65;;;25.25;;
59907;SDS011;61804;54.926;73.496;2022-12-04T05:44:33;32.45;;;20.10;;
59907;SDS011;61804;54.926;73.496;2022-12-04T05:47:01;24.45;;;16.30;;
59907;SDS011;61804;54.926;73.496;2022-12-04T05:49:29;18.00;;;13.27;;
59907;SDS011;61804;54.926;73.496;2022-12-04T05:51:58;28.77;;;15.57;;
59907;SDS011;61804;54.926;73.496;2022-12-04T05:54:26;37.63;;;22.90;;
59907;SDS011;61804;54.926;73.496;2022-12-04T05:56:53;30.95;;;22.20;;
59907;SDS011;61804;54.926;73.496;2022-12-04T05:59:21;42.47;;;28.42;;
59907;SDS011;61804;54.926;73.496;2022-12-04T06:01:49;30.85;;;23.33;;
59907;SDS011;61804;54.926;73.496;2022-12-04T06:04:16;33.65;;;22.73;;
59907;SDS011;61804;54.926;73.496;2022-12-04T06:06:44;50.88;;;27.67;;
59907;SDS011;61804;54.926;73.496;2022-12-04T06:09:11;59.45;;;32.28;;
59907;SDS011;61804;54.926;73.496;2022-12-04T06:11:39;25.27;;;13.20;;
59907;SDS011;61804;54.926;73.496;2022-12-04T06:14:10;34.70;;;19.42;;
59907;SDS011;61804;54.926;73.496;2022-12-04T06:16:40;28.67;;;19.45;;
59907;SDS011;61804;54.926;73.496;2022-12-04T06:19:08;33.53;;;19.63;;
59907;SDS011;61804;54.926;73.496;2022-12-04T06:21:37;52.60;;;31.88;;
59907;SDS011;61804;54.926;73.496;2022-12-04T06:24:07;51.53;;;31.77;;
59907;SDS011;61804;54.926;73.496;2022-12-04T06:26:35;39.65;;;29.40;;
59907;SDS011;61804;54.926;73.496;2022-12-04T06:29:02;57.75;;;40.05;;
59907;SDS011;61804;54.926;73.496;2022-12-04T06:31:30;58.85;;;34.83;;
59907;SDS011;61804;54.926;73.496;2022-12-04T06:34:00;54.53;;;35.50;;
59907;SDS011;61804;54.926;73.496;2022-12-04T06:36:28;41.72;;;27.25;;
59907;SDS011;61804;54.926;73.496;2022-12-04T06:38:56;52.80;;;31.25;;
59907;SDS011;61804;54.926;73.496;2022-12-04T06:41:34;45.75;;;31.75;;
59907;SDS011;61804;54.926;73.496;2022-12-04T06:44:03;50.40;;;33.33;;
59907;SDS011;61804;54.926;73.496;2022-12-04T06:46:31;40.72;;;31.00;;
59907;SDS011;61804;54.926;73.496;2022-12-04T06:49:00;47.78;;;31.35;;
59907;SDS011;61804;54.926;73.496;2022-12-04T06:51:37;41.95;;;27.15;;
59907;SDS011;61804;54.926;73.496;2022-12-04T06:54:08;36.08;;;23.15;;
59907;SDS011;61804;54.926;73.496;2022-12-04T06:56:37;25.83;;;17.85;;
59907;SDS011;61804;54.926;73.496;2022-12-04T06:59:05;42.00;;;21.35;;
59907;SDS011;61804;54.926;73.496;2022-12-04T07:01:33;31.02;;;17.73;;
59907;SDS011;61804;54.926;73.496;2022-12-04T07:04:01;21.95;;;16.73;;
59907;SDS011;61804;54.926;73.496;2022-12-04T07:06:30;28.50;;;15.05;;
59907;SDS011;61804;54.926;73.496;2022-12-04T07:09:00;22.10;;;14.43;;
59907;SDS011;61804;54.926;73.496;2022-12-04T07:11:30;26.70;;;16.52;;
59907;SDS011;61804;54.926;73.496;2022-12-04T07:13:57;37.22;;;19.58;;
59907;SDS011;61804;54.926;73.496;2022-12-04T07:16:26;21.23;;;12.77;;
59907;SDS011;61804;54.926;73.496;2022-12-04T07:18:54;36.42;;;21.20;;
59907;SDS011;61804;54.926;73.496;2022-12-04T07:21:24;21.88;;;16.17;;
59907;SDS011;61804;54.926;73.496;2022-12-04T07:23:56;55.15;;;33.20;;
59907;SDS011;61804;54.926;73.496;2022-12-04T07:26:25;41.83;;;30.13;;
59907;SDS011;61804;54.926;73.496;2022-12-04T07:28:58;35.10;;;27.63;;
59907;SDS011;61804;54.926;73.496;2022-12-04T07:31:26;39.97;;;19.27;;
59907;SDS011;61804;54.926;73.496;2022-12-04T07:33:54;40.58;;;23.75;;
59907;SDS011;61804;54.926;73.496;2022-12-04T07:36:23;26.77;;;21.08;;
59907;SDS011;61804;54.926;73.496;2022-12-04T07:38:50;36.67;;;19.52;;
59907;SDS011;61804;54.926;73.496;2022-12-04T07:41:18;34.72;;;19.88;;
59907;SDS011;61804;54.926;73.496;2022-12-04T07:43:46;33.80;;;16.50;;
59907;SDS011;61804;54.926;73.496;2022-12-04T07:46:15;26.60;;;19.70;;
59907;SDS011;61804;54.926;73.496;2022-12-04T07:48:43;44.58;;;27.83;;
59907;SDS011;61804;54.926;73.496;2022-12-04T07:51:12;35.95;;;23.73;;
59907;SDS011;61804;54.926;73.496;2022-12-04T07:53:42;38.67;;;21.40;;
59907;SDS011;61804;54.926;73.496;2022-12-04T07:56:11;32.17;;;19.50;;
59907;SDS011;61804;54.926;73.496;2022-12-04T07:58:38;22.63;;;14.73;;
59907;SDS011;61804;54.926;73.496;2022-12-04T08:01:18;23.58;;;12.23;;
59907;SDS011;61804;54.926;73.496;2022-12-04T08:03:47;33.15;;;14.65;;
59907;SDS011;61804;54.926;73.496;2022-12-04T08:06:20;18.58;;;13.60;;
59907;SDS011;61804;54.926;73.496;2022-12-04T08:08:48;39.95;;;20.45;;
59907;SDS011;61804;54.926;73.496;2022-12-04T08:11:17;18.20;;;12.20;;
59907;SDS011;61804;54.926;73.496;2022-12-04T08:13:44;49.95;;;25.55;;
59907;SDS011;61804;54.926;73.496;2022-12-04T08:16:12;21.73;;;16.33;;
59907;SDS011;61804;54.926;73.496;2022-12-04T08:18:40;20.33;;;12.95;;
59907;SDS011;61804;54.926;73.496;2022-12-04T08:21:12;23.98;;;13.10;;
59907;SDS011;61804;54.926;73.496;2022-12-04T08:23:41;21.58;;;14.70;;
59907;SDS011;61804;54.926;73.496;2022-12-04T08:26:09;16.60;;;12.25;;
59907;SDS011;61804;54.926;73.496;2022-12-04T08:28:37;27.52;;;14.38;;
59907;SDS011;61804;54.926;73.496;2022-12-04T08:31:06;26.65;;;16.00;;
59907;SDS011;61804;54.926;73.496;2022-12-04T08:33:43;39.75;;;21.92;;
59907;SDS011;61804;54.926;73.496;2022-12-04T08:36:21;45.20;;;17.20;;
59907;SDS011;61804;54.926;73.496;2022-12-04T08:38:48;14.77;;;11.75;;
59907;SDS011;61804;54.926;73.496;2022-12-04T08:41:17;19.17;;;13.65;;
59907;SDS011;61804;54.926;73.496;2022-12-04T08:43:45;23.08;;;16.23;;
59907;SDS011;61804;54.926;73.496;2022-12-04T08:46:22;26.48;;;12.20;;
59907;SDS011;61804;54.926;73.496;2022-12-04T08:48:52;25.98;;;15.93;;
59907;SDS011;61804;54.926;73.496;2022-12-04T08:51:26;31.60;;;17.65;;
59907;SDS011;61804;54.926;73.496;2022-12-04T08:54:06;42.38;;;18.40;;
59907;SDS011;61804;54.926;73.496;2022-12-04T08:56:43;43.38;;;16.00;;
59907;SDS011;61804;54.926;73.496;2022-12-04T08:59:20;58.53;;;26.40;;
59907;SDS011;61804;54.926;73.496;2022-12-04T09:01:50;32.72;;;22.48;;
59907;SDS011;61804;54.926;73.496;2022-12-04T09:04:18;29.77;;;18.23;;
59907;SDS011;61804;54.926;73.496;2022-12-04T09:06:46;22.88;;;14.75;;
59907;SDS011;61804;54.926;73.496;2022-12-04T09:09:13;21.35;;;16.38;;
59907;SDS011;61804;54.926;73.496;2022-12-04T09:11:45;13.70;;;9.40;;
59907;SDS011;61804;54.926;73.496;2022-12-04T09:14:23;63.78;;;30.85;;
59907;SDS011;61804;54.926;73.496;2022-12-04T09:16:52;40.78;;;25.88;;
59907;SDS011;61804;54.926;73.496;2022-12-04T09:19:19;78.53;;;39.83;;
59907;SDS011;61804;54.926;73.496;2022-12-04T09:21:47;28.83;;;16.55;;
59907;SDS011;61804;54.926;73.496;2022-12-04T09:24:15;49.25;;;32.65;;
59907;SDS011;61804;54.926;73.496;2022-12-04T09:26:43;21.27;;;16.00;;
59907;SDS011;61804;54.926;73.496;2022-12-04T09:29:21;16.40;;;13.73;;
59907;SDS011;61804;54.926;73.496;2022-12-04T09:31:58;17.83;;;15.85;;
59907;SDS011;61804;54.926;73.496;2022-12-04T09:34:25;18.50;;;12.93;;
59907;SDS011;61804;54.926;73.496;2022-12-04T09:36:54;17.77;;;13.45;;
59907;SDS011;61804;54.926;73.496;2022-12-04T09:39:26;15.93;;;10.25;;
59907;SDS011;61804;54.926;73.496;2022-12-04T09:44:28;20.60;;;15.02;;
59907;SDS011;61804;54.926;73.496;2022-12-04T09:47:05;24.27;;;18.40;;
59907;SDS011;61804;54.926;73.496;2022-12-04T09:49:44;17.88;;;12.45;;
59907;SDS011;61804;54.926;73.496;2022-12-04T09:54:46;20.38;;;14.40;;
59907;SDS011;61804;54.926;73.496;2022-12-04T09:57:16;22.52;;;15.02;;
59907;SDS011;61804;54.926;73.496;2022-12-04T09:59:46;35.75;;;25.73;;
59907;SDS011;61804;54.926;73.496;2022-12-04T10:02:23;29.20;;;17.20;;
59907;SDS011;61804;54.926;73.496;2022-12-04T10:04:54;40.97;;;24.33;;
59907;SDS011;61804;54.926;73.496;2022-12-04T10:07:28;29.02;;;18.20;;
59907;SDS011;61804;54.926;73.496;2022-12-04T10:25:28;25.08;;;15.80;;
59907;SDS011;61804;54.926;73.496;2022-12-04T10:30:47;27.95;;;17.55;;
59907;SDS011;61804;54.926;73.496;2022-12-04T10:33:17;23.17;;;13.50;;
59907;SDS011;61804;54.926;73.496;2022-12-04T10:35:55;18.80;;;12.55;;
59907;SDS011;61804;54.926;73.496;2022-12-04T10:38:28;33.55;;;16.58;;
59907;SDS011;61804;54.926;73.496;2022-12-04T10:41:23;25.33;;;15.07;;
59907;SDS011;61804;54.926;73.496;2022-12-04T10:43:47;32.38;;;17.23;;
59907;SDS011;61804;54.926;73.496;2022-12-04T10:48:45;24.35;;;19.13;;
59907;SDS011;61804;54.926;73.496;2022-12-04T10:51:18;22.77;;;13.95;;
59907;SDS011;61804;54.926;73.496;2022-12-04T10:53:47;27.73;;;14.15;;
59907;SDS011;61804;54.926;73.496;2022-12-04T10:56:19;29.10;;;22.23;;
59907;SDS011;61804;54.926;73.496;2022-12-04T10:58:58;38.00;;;20.83;;
59907;SDS011;61804;54.926;73.496;2022-12-04T11:01:31;28.98;;;19.50;;
59907;SDS011;61804;54.926;73.496;2022-12-04T11:04:01;12.45;;;11.20;;
59907;SDS011;61804;54.926;73.496;2022-12-04T11:06:29;17.70;;;12.13;;
59907;SDS011;61804;54.926;73.496;2022-12-04T11:08:58;39.70;;;20.92;;
59907;SDS011;61804;54.926;73.496;2022-12-04T11:11:27;39.65;;;19.70;;
59907;SDS011;61804;54.926;73.496;2022-12-04T11:21:49;27.25;;;14.88;;
59907;SDS011;61804;54.926;73.496;2022-12-04T11:24:28;33.88;;;16.73;;
59907;SDS011;61804;54.926;73.496;2022-12-04T11:27:05;37.90;;;13.77;;
59907;SDS011;61804;54.926;73.496;2022-12-04T11:29:35;19.33;;;12.15;;
59907;SDS011;61804;54.926;73.496;2022-12-04T11:32:05;23.10;;;13.93;;
59907;SDS011;61804;54.926;73.496;2022-12-04T11:34:37;22.13;;;15.82;;
59907;SDS011;61804;54.926;73.496;2022-12-04T11:37:14;24.27;;;18.20;;
59907;SDS011;61804;54.926;73.496;2022-12-04T11:39:44;26.77;;;14.05;;
59907;SDS011;61804;54.926;73.496;2022-12-04T11:44:48;38.28;;;19.23;;
59907;SDS011;61804;54.926;73.496;2022-12-04T11:47:17;32.00;;;13.93;;
59907;SDS011;61804;54.926;73.496;2022-12-04T11:49:56;52.28;;;24.23;;
59907;SDS011;61804;54.926;73.496;2022-12-04T11:52:31;25.65;;;19.92;;
59907;SDS011;61804;54.926;73.496;2022-12-04T11:55:16;24.10;;;17.25;;
59907;SDS011;61804;54.926;73.496;2022-12-04T11:58:01;22.20;;;10.35;;
59907;SDS011;61804;54.926;73.496;2022-12-04T12:00:34;17.60;;;8.52;;
59907;SDS011;61804;54.926;73.496;2022-12-04T12:11:07;8.60;;;6.45;;
59907;SDS011;61804;54.926;73.496;2022-12-04T12:16:13;15.38;;;9.60;;
59907;SDS011;61804;54.926;73.496;2022-12-04T12:21:24;12.27;;;7.87;;
59907;SDS011;61804;54.926;73.496;2022-12-04T12:26:43;16.38;;;10.20;;
59907;SDS011;61804;54.926;73.496;2022-12-04T12:34:34;25.80;;;16.55;;
59907;SDS011;61804;54.926;73.496;2022-12-04T12:37:22;34.85;;;20.98;;
59907;SDS011;61804;54.926;73.496;2022-12-04T12:42:31;56.20;;;29.33;;
59907;SDS011;61804;54.926;73.496;2022-12-04T12:45:24;44.47;;;28.55;;
59907;SDS011;61804;54.926;73.496;2022-12-04T12:47:49;46.65;;;28.55;;
59907;SDS011;61804;54.926;73.496;2022-12-04T12:50:27;53.50;;;31.65;;
59907;SDS011;61804;54.926;73.496;2022-12-04T12:53:08;53.55;;;31.90;;
59907;SDS011;61804;54.926;73.496;2022-12-04T12:55:58;71.90;;;41.22;;
59907;SDS011;61804;54.926;73.496;2022-12-04T12:58:31;93.72;;;48.25;;
59907;SDS011;61804;54.926;73.496;2022-12-04T13:06:12;68.78;;;40.70;;
59907;SDS011;61804;54.926;73.496;2022-12-04T13:08:51;55.25;;;36.13;;
59907;SDS011;61804;54.926;73.496;2022-12-04T13:11:26;89.70;;;38.10;;
59907;SDS011;61804;54.926;73.496;2022-12-04T13:13:57;38.88;;;18.63;;
59907;SDS011;61804;54.926;73.496;2022-12-04T13:19:21;53.40;;;22.23;;
59907;SDS011;61804;54.926;73.496;2022-12-04T13:27:38;34.20;;;17.67;;
59907;SDS011;61804;54.926;73.496;2022-12-04T13:43:15;39.90;;;19.38;;
59907;SDS011;61804;54.926;73.496;2022-12-04T13:45:46;44.90;;;28.13;;
59907;SDS011;61804;54.926;73.496;2022-12-04T13:48:24;71.95;;;39.92;;
59907;SDS011;61804;54.926;73.496;2022-12-04T13:50:59;66.75;;;40.70;;
59907;SDS011;61804;54.926;73.496;2022-12-04T13:53:29;62.70;;;33.08;;
59907;SDS011;61804;54.926;73.496;2022-12-04T13:56:26;40.58;;;18.92;;
59907;SDS011;61804;54.926;73.496;2022-12-04T13:59:38;42.05;;;17.77;;
59907;SDS011;61804;54.926;73.496;2022-12-04T14:01:50;23.23;;;16.13;;
59907;SDS011;61804;54.926;73.496;2022-12-04T14:05:24;52.20;;;25.92;;
59907;SDS011;61804;54.926;73.496;2022-12-04T14:07:59;77.35;;;39.30;;
59907;SDS011;61804;54.926;73.496;2022-12-04T14:10:22;45.70;;;29.08;;
59907;SDS011;61804;54.926;73.496;2022-12-04T14:12:59;34.70;;;22.00;;
59907;SDS011;61804;54.926;73.496;2022-12-04T14:15:28;33.08;;;17.95;;
59907;SDS011;61804;54.926;73.496;2022-12-04T14:20:24;32.97;;;17.40;;
59907;SDS011;61804;54.926;73.496;2022-12-04T14:22:52;35.15;;;20.90;;
59907;SDS011;61804;54.926;73.496;2022-12-04T14:25:21;42.85;;;22.70;;
59907;SDS011;61804;54.926;73.496;2022-12-04T14:27:50;87.30;;;45.05;;
59907;SDS011;61804;54.926;73.496;2022-12-04T14:32:49;145.73;;;75.82;;
59907;SDS011;61804;54.926;73.496;2022-12-04T14:35:20;109.40;;;62.65;;
59907;SDS011;61804;54.926;73.496;2022-12-04T14:38:14;110.95;;;54.45;;
59907;SDS011;61804;54.926;73.496;2022-12-04T14:40:47;75.20;;;39.65;;
59907;SDS011;61804;54.926;73.496;2022-12-04T14:43:19;64.93;;;37.20;;
59907;SDS011;61804;54.926;73.496;2022-12-04T14:48:49;72.00;;;42.55;;
59907;SDS011;61804;54.926;73.496;2022-12-04T14:51:24;91.57;;;46.53;;
59907;SDS011;61804;54.926;73.496;2022-12-04T14:59:20;46.25;;;22.80;;
59907;SDS011;61804;54.926;73.496;2022-12-04T15:01:49;25.63;;;11.15;;
59907;SDS011;61804;54.926;73.496;2022-12-04T15:04:25;32.15;;;15.68;;
59907;SDS011;61804;54.926;73.496;2022-12-04T15:06:54;42.05;;;19.85;;
59907;SDS011;61804;54.926;73.496;2022-12-04T15:09:22;35.92;;;18.60;;
59907;SDS011;61804;54.926;73.496;2022-12-04T15:17:35;41.33;;;25.80;;
59907;SDS011;61804;54.926;73.496;2022-12-04T15:20:17;60.40;;;22.70;;
59907;SDS011;61804;54.926;73.496;2022-12-04T15:22:50;34.83;;;21.10;;
59907;SDS011;61804;54.926;73.496;2022-12-04T15:25:21;48.45;;;21.48;;
59907;SDS011;61804;54.926;73.496;2022-12-04T15:27:51;41.47;;;22.73;;
59907;SDS011;61804;54.926;73.496;2022-12-04T15:30:24;71.35;;;31.52;;
59907;SDS011;61804;54.926;73.496;2022-12-04T15:32:52;80.72;;;39.25;;
59907;SDS011;61804;54.926;73.496;2022-12-04T15:35:30;89.03;;;40.05;;
59907;SDS011;61804;54.926;73.496;2022-12-04T15:37:58;83.20;;;39.80;;
59907;SDS011;61804;54.926;73.496;2022-12-04T15:40:26;68.03;;;39.33;;
59907;SDS011;61804;54.926;73.496;2022-12-04T15:43:22;150.73;;;68.45;;
59907;SDS011;61804;54.926;73.496;2022-12-04T15:45:48;89.50;;;57.00;;
59907;SDS011;61804;54.926;73.496;2022-12-04T15:48:27;117.03;;;55.92;;
59907;SDS011;61804;54.926;73.496;2022-12-04T15:50:56;65.90;;;36.97;;
59907;SDS011;61804;54.926;73.496;2022-12-04T15:53:25;86.88;;;45.08;;
59907;SDS011;61804;54.926;73.496;2022-12-04T15:55:56;82.80;;;45.90;;
59907;SDS011;61804;54.926;73.496;2022-12-04T16:08:36;57.97;;;31.00;;
59907;SDS011;61804;54.926;73.496;2022-12-04T16:13:33;56.83;;;32.22;;
59907;SDS011;61804;54.926;73.496;2022-12-04T16:16:05;67.70;;;37.85;;
59907;SDS011;61804;54.926;73.496;2022-12-04T16:18:43;116.90;;;61.50;;
59907;SDS011;61804;54.926;73.496;2022-12-04T16:21:23;91.85;;;51.25;;
59907;SDS011;61804;54.926;73.496;2022-12-04T16:23:53;53.38;;;28.55;;
59907;SDS011;61804;54.926;73.496;2022-12-04T16:26:25;60.20;;;30.98;;
59907;SDS011;61804;54.926;73.496;2022-12-04T16:28:52;80.57;;;38.65;;
59907;SDS011;61804;54.926;73.496;2022-12-04T16:31:20;61.03;;;34.50;;
59907;SDS011;61804;54.926;73.496;2022-12-04T16:33:48;77.78;;;43.20;;
59907;SDS011;61804;54.926;73.496;2022-12-04T16:36:16;113.50;;;53.30;;
59907;SDS011;61804;54.926;73.496;2022-12-04T16:38:53;110.85;;;54.58;;
59907;SDS011;61804;54.926;73.496;2022-12-04T16:41:21;75.97;;;38.35;;
59907;SDS011;61804;54.926;73.496;2022-12-04T16:43:53;103.05;;;43.80;;
59907;SDS011;61804;54.926;73.496;2022-12-04T16:46:27;56.30;;;37.83;;
59907;SDS011;61804;54.926;73.496;2022-12-04T16:49:00;92.50;;;44.67;;
59907;SDS011;61804;54.926;73.496;2022-12-04T16:51:29;37.53;;;20.33;;
59907;SDS011;61804;54.926;73.496;2022-12-04T16:53:57;58.60;;;30.08;;
59907;SDS011;61804;54.926;73.496;2022-12-04T16:56:24;41.67;;;25.00;;
59907;SDS011;61804;54.926;73.496;2022-12-04T16:58:52;39.95;;;25.05;;
59907;SDS011;61804;54.926;73.496;2022-12-04T17:01:25;36.00;;;22.70;;
59907;SDS011;61804;54.926;73.496;2022-12-04T17:04:03;200.45;;;93.97;;
59907;SDS011;61804;54.926;73.496;2022-12-04T17:06:30;105.72;;;52.83;;
59907;SDS011;61804;54.926;73.496;2022-12-04T17:08:59;105.93;;;54.25;;
59907;SDS011;61804;54.926;73.496;2022-12-04T17:11:27;51.20;;;25.77;;